createdAt,value
2018-07-09T00:00:10.517Z,11.6
2018-07-09T00:01:10.621Z,11.6
2018-07-09T00:02:11.897Z,11.7
2018-07-09T00:03:10.535Z,11.7
2018-07-09T00:04:10.624Z,11.8
2018-07-09T00:05:10.488Z,11.8
2018-07-09T00:06:10.518Z,11.8
2018-07-09T00:07:10.542Z,11.8
2018-07-09T00:08:10.548Z,11.8
2018-07-09T00:09:10.546Z,11.8
2018-07-09T00:10:11.185Z,11.7
2018-07-09T00:11:10.562Z,11.7
2018-07-09T00:12:10.485Z,11.7
2018-07-09T00:13:10.517Z,11.7
2018-07-09T00:14:10.590Z,11.7
2018-07-09T00:15:10.579Z,11.6
2018-07-09T00:16:10.559Z,11.6
2018-07-09T00:17:10.621Z,11.5
2018-07-09T00:18:10.487Z,11.5
2018-07-09T00:19:10.491Z,11.5
2018-07-09T00:20:12.726Z,11.5
2018-07-09T00:21:10.601Z,11.5
2018-07-09T00:22:10.529Z,11.5
2018-07-09T00:23:10.610Z,11.5
2018-07-09T00:24:10.669Z,11.5
2018-07-09T00:25:10.639Z,11.5
2018-07-09T00:26:10.608Z,11.5
2018-07-09T00:27:10.606Z,11.4
2018-07-09T00:28:10.514Z,11.4
2018-07-09T00:29:10.546Z,11.4
2018-07-09T00:31:10.603Z,11.3
2018-07-09T00:32:11.029Z,11.2
2018-07-09T00:33:10.507Z,11.2
2018-07-09T00:34:10.586Z,11.2
2018-07-09T00:35:11.949Z,11.2
2018-07-09T00:36:10.709Z,11.2
2018-07-09T00:37:10.814Z,11.2
2018-07-09T00:38:10.602Z,11.2
2018-07-09T00:39:10.539Z,11.2
2018-07-09T00:40:11.365Z,11.1
2018-07-09T00:41:10.613Z,11.1
2018-07-09T00:42:10.855Z,11.1
2018-07-09T00:44:10.926Z,11.2
2018-07-09T00:45:10.610Z,11.2
2018-07-09T00:46:10.615Z,11.2
2018-07-09T00:47:10.696Z,11.2
2018-07-09T00:48:10.653Z,11.2
2018-07-09T00:49:10.664Z,11.2
2018-07-09T00:50:20.609Z,11.1
2018-07-09T00:51:10.770Z,11.1
2018-07-09T00:52:10.665Z,11.1
2018-07-09T00:53:10.644Z,11.1
2018-07-09T00:54:10.715Z,11.1
2018-07-09T00:55:10.607Z,11.1
2018-07-09T00:56:10.550Z,11.1
2018-07-09T00:57:10.570Z,11.1
2018-07-09T00:58:10.743Z,11.2
2018-07-09T00:59:10.690Z,11.2
2018-07-09T01:00:10.672Z,11.1
2018-07-09T01:02:23.039Z,11.1
2018-07-09T01:03:22.997Z,11.0
2018-07-09T01:04:23.684Z,11.0
2018-07-09T01:05:23.032Z,11.1
2018-07-09T01:06:23.049Z,11.1
2018-07-09T01:07:23.053Z,11.1
2018-07-09T01:08:23.112Z,11.1
2018-07-09T01:09:23.030Z,11.1
2018-07-09T01:10:23.162Z,11.2
2018-07-09T01:11:23.028Z,11.2
2018-07-09T01:12:23.414Z,11.2
2018-07-09T01:13:23.133Z,11.2
2018-07-09T01:14:23.040Z,11.2
2018-07-09T01:15:23.055Z,11.2
2018-07-09T01:16:23.183Z,11.2
2018-07-09T01:17:23.107Z,11.2
2018-07-09T01:18:23.094Z,11.1
2018-07-09T01:19:23.089Z,11.1
2018-07-09T01:20:23.132Z,11.0
2018-07-09T01:21:23.129Z,11.0
2018-07-09T01:22:23.155Z,11.0
2018-07-09T01:23:23.191Z,11.0
2018-07-09T01:24:23.178Z,11.0
2018-07-09T01:25:23.127Z,11.0
2018-07-09T01:26:23.192Z,11.0
2018-07-09T01:27:23.099Z,11.0
2018-07-09T01:28:23.894Z,11.0
2018-07-09T01:29:23.137Z,11.0
2018-07-09T01:30:23.083Z,11.0
2018-07-09T01:31:23.172Z,10.9
2018-07-09T01:32:23.115Z,10.9
2018-07-09T01:33:23.098Z,10.9
2018-07-09T01:34:23.144Z,10.9
2018-07-09T01:35:23.085Z,10.9
2018-07-09T01:36:23.104Z,10.8
2018-07-09T01:37:23.775Z,10.8
2018-07-09T01:38:23.149Z,10.8
2018-07-09T01:39:23.131Z,10.8
2018-07-09T01:40:23.089Z,10.8
2018-07-09T01:41:23.155Z,10.8
2018-07-09T01:42:23.121Z,10.8
2018-07-09T01:43:23.107Z,10.8
2018-07-09T01:44:23.069Z,10.8
2018-07-09T01:45:23.225Z,10.8
2018-07-09T01:46:23.242Z,10.7
2018-07-09T01:49:04.263Z,10.7
2018-07-09T01:49:16.143Z,10.7
2018-07-09T01:50:16.161Z,10.6
2018-07-09T01:51:16.107Z,10.6
2018-07-09T01:52:16.181Z,10.6
2018-07-09T01:53:16.130Z,10.6
2018-07-09T01:54:16.104Z,10.7
2018-07-09T01:55:16.213Z,10.7
2018-07-09T01:56:16.081Z,10.6
2018-07-09T01:57:16.108Z,10.6
2018-07-09T01:58:16.101Z,10.6
2018-07-09T01:59:16.186Z,10.7
2018-07-09T02:00:16.023Z,10.7
2018-07-09T02:01:16.120Z,10.6
2018-07-09T02:02:16.063Z,10.6
2018-07-09T02:03:16.170Z,10.6
2018-07-09T02:04:16.099Z,10.6
2018-07-09T02:05:16.225Z,10.6
2018-07-09T02:06:16.272Z,10.6
2018-07-09T02:07:16.188Z,10.6
2018-07-09T02:08:16.225Z,10.6
2018-07-09T02:09:16.287Z,10.5
2018-07-09T02:10:16.340Z,10.5
2018-07-09T02:11:16.100Z,10.4
2018-07-09T02:12:16.136Z,10.4
2018-07-09T02:13:16.127Z,10.4
2018-07-09T02:19:11.538Z,10.4
2018-07-09T02:19:21.494Z,10.4
2018-07-09T02:20:21.498Z,10.3
2018-07-09T02:21:21.535Z,10.3
2018-07-09T02:22:21.666Z,10.2
2018-07-09T02:23:21.593Z,10.2
2018-07-09T02:24:21.646Z,10.1
2018-07-09T02:25:21.690Z,10.1
2018-07-09T02:26:21.567Z,10.1
2018-07-09T02:27:21.511Z,10.2
2018-07-09T02:28:22.611Z,10.2
2018-07-09T02:29:21.580Z,10.2
2018-07-09T02:30:21.651Z,10.2
2018-07-09T02:31:21.487Z,10.2
2018-07-09T02:32:21.634Z,10.3
2018-07-09T02:33:21.601Z,10.3
2018-07-09T02:34:21.522Z,10.3
2018-07-09T02:35:21.556Z,10.3
2018-07-09T02:36:21.470Z,10.3
2018-07-09T02:37:21.600Z,10.4
2018-07-09T02:38:21.479Z,10.4
2018-07-09T02:39:21.577Z,10.4
2018-07-09T02:40:21.596Z,10.4
2018-07-09T02:41:21.521Z,10.4
2018-07-09T02:42:21.556Z,10.4
2018-07-09T02:43:21.516Z,10.4
2018-07-09T02:44:21.537Z,10.4
2018-07-09T02:45:21.546Z,10.4
2018-07-09T02:46:21.542Z,10.4
2018-07-09T02:47:21.578Z,10.4
2018-07-09T02:48:21.522Z,10.4
2018-07-09T02:49:21.556Z,10.4
2018-07-09T02:50:21.544Z,10.4
2018-07-09T02:51:21.511Z,10.4
2018-07-09T02:52:21.473Z,10.4
2018-07-09T02:53:21.577Z,10.4
2018-07-09T02:54:21.612Z,10.4
2018-07-09T02:55:21.583Z,10.4
2018-07-09T02:56:21.483Z,10.4
2018-07-09T02:57:21.535Z,10.2
2018-07-09T02:58:21.899Z,10.2
2018-07-09T02:59:21.769Z,10.2
2018-07-09T03:00:21.652Z,10.2
2018-07-09T03:01:22.180Z,10.2
2018-07-09T03:02:21.584Z,10.1
2018-07-09T03:03:21.525Z,10.1
2018-07-09T03:04:21.575Z,10.1
2018-07-09T03:05:21.729Z,10.2
2018-07-09T03:06:21.549Z,10.2
2018-07-09T03:07:21.686Z,10.2
2018-07-09T03:08:21.576Z,10.2
2018-07-09T03:09:21.697Z,10.2
2018-07-09T03:10:21.597Z,10.1
2018-07-09T03:11:21.558Z,10.1
2018-07-09T03:12:21.538Z,10.3
2018-07-09T03:13:21.520Z,10.3
2018-07-09T03:14:21.634Z,10.3
2018-07-09T03:15:21.578Z,10.4
2018-07-09T03:16:21.691Z,10.4
2018-07-09T03:17:21.674Z,10.5
2018-07-09T03:18:21.591Z,10.5
2018-07-09T03:19:21.662Z,10.5
2018-07-09T03:20:21.679Z,10.4
2018-07-09T03:21:21.530Z,10.4
2018-07-09T03:22:21.619Z,10.4
2018-07-09T03:23:21.886Z,10.3
2018-07-09T03:24:22.356Z,10.3
2018-07-09T03:25:21.805Z,10.1
2018-07-09T03:26:21.616Z,10.1
2018-07-09T03:27:21.625Z,10.1
2018-07-09T03:28:21.712Z,10.0
2018-07-09T03:29:21.749Z,10.0
2018-07-09T03:30:21.624Z,10.0
2018-07-09T03:31:21.652Z,10.0
2018-07-09T03:32:21.631Z,10.0
2018-07-09T03:33:21.650Z,10.2
2018-07-09T03:34:21.602Z,10.2
2018-07-09T03:35:21.693Z,10.2
2018-07-09T03:36:21.680Z,10.2
2018-07-09T03:37:21.555Z,10.2
2018-07-09T03:38:21.547Z,10.2
2018-07-09T03:39:21.623Z,10.2
2018-07-09T03:40:21.726Z,10.2
2018-07-09T03:41:21.668Z,10.2
2018-07-09T03:42:21.695Z,10.2
2018-07-09T03:43:21.630Z,10.1
2018-07-09T03:44:21.801Z,10.1
2018-07-09T03:45:21.667Z,10.0
2018-07-09T03:46:21.683Z,10.0
2018-07-09T03:47:21.640Z,10.0
2018-07-09T03:48:21.678Z,10.1
2018-07-09T03:49:21.776Z,10.1
2018-07-09T03:50:21.704Z,10.0
2018-07-09T03:51:21.597Z,10.0
2018-07-09T03:52:21.739Z,10.0
2018-07-09T03:53:21.747Z,10.0
2018-07-09T03:54:21.816Z,10.0
2018-07-09T03:55:21.725Z,10.0
2018-07-09T03:56:21.655Z,10.0
2018-07-09T03:57:21.624Z,10.0
2018-07-09T03:58:21.634Z,10.0
2018-07-09T03:59:22.912Z,10.0
2018-07-09T04:00:21.753Z,10.0
2018-07-09T04:01:21.699Z,10.0
2018-07-09T04:02:21.871Z,10.0
2018-07-09T04:03:21.712Z,10.0
2018-07-09T04:04:21.700Z,10.0
2018-07-09T04:05:21.669Z,10.0
2018-07-09T04:06:21.711Z,10.0
2018-07-09T04:07:21.702Z,10.0
2018-07-09T04:08:21.627Z,10.0
2018-07-09T04:09:21.673Z,10.0
2018-07-09T04:10:21.741Z,10.0
2018-07-09T04:11:21.796Z,10.0
2018-07-09T04:12:21.691Z,10.0
2018-07-09T04:13:21.707Z,10.0
2018-07-09T04:14:21.628Z,10.0
2018-07-09T04:15:21.732Z,10.0
2018-07-09T04:16:21.710Z,10.0
2018-07-09T04:17:21.816Z,10.0
2018-07-09T04:18:21.627Z,10.1
2018-07-09T04:22:40.086Z,10.1
2018-07-09T04:22:49.293Z,10.1
2018-07-09T04:23:49.270Z,10.3
2018-07-09T04:24:49.332Z,10.3
2018-07-09T04:25:49.317Z,10.3
2018-07-09T04:26:49.263Z,10.4
2018-07-09T04:27:49.194Z,10.4
2018-07-09T04:28:49.353Z,10.4
2018-07-09T04:29:49.228Z,10.4
2018-07-09T04:30:49.272Z,10.4
2018-07-09T04:33:01.864Z,10.4
2018-07-09T04:34:01.728Z,10.5
2018-07-09T04:35:01.730Z,10.5
2018-07-09T04:36:01.826Z,10.5
2018-07-09T04:37:01.740Z,10.6
2018-07-09T04:38:02.563Z,10.6
2018-07-09T04:39:01.743Z,10.9
2018-07-09T04:40:01.721Z,10.9
2018-07-09T04:41:02.521Z,10.9
2018-07-09T04:42:01.801Z,11.2
2018-07-09T04:43:02.076Z,11.2
2018-07-09T04:44:01.712Z,11.6
2018-07-09T04:45:01.782Z,11.6
2018-07-09T04:46:01.930Z,11.6
2018-07-09T04:47:01.750Z,12.0
2018-07-09T04:48:01.878Z,12.0
2018-07-09T04:49:01.835Z,12.4
2018-07-09T04:50:01.776Z,12.4
2018-07-09T04:51:02.045Z,12.4
2018-07-09T04:52:01.797Z,12.9
2018-07-09T04:53:01.855Z,12.9
2018-07-09T04:54:01.767Z,13.2
2018-07-09T04:55:01.873Z,13.2
2018-07-09T04:56:01.777Z,13.2
2018-07-09T04:57:01.854Z,13.2
2018-07-09T04:58:02.065Z,13.2
2018-07-09T04:59:01.938Z,13.6
2018-07-09T05:00:01.795Z,13.6
2018-07-09T05:01:01.870Z,13.6
2018-07-09T05:02:01.876Z,14.0
2018-07-09T05:03:01.911Z,14.0
2018-07-09T05:04:01.744Z,14.0
2018-07-09T05:05:01.924Z,14.1
2018-07-09T05:06:01.838Z,14.1
2018-07-09T05:07:01.942Z,14.4
2018-07-09T05:08:01.782Z,14.4
2018-07-09T05:09:01.782Z,14.4
2018-07-09T05:10:02.553Z,14.5
2018-07-09T05:11:01.853Z,14.5
2018-07-09T05:12:01.917Z,14.9
2018-07-09T05:13:02.188Z,14.9
2018-07-09T05:14:01.859Z,14.9
2018-07-09T05:15:01.826Z,15.2
2018-07-09T05:16:01.896Z,15.2
2018-07-09T05:17:01.816Z,15.6
2018-07-09T05:18:01.877Z,15.6
2018-07-09T05:19:01.938Z,15.6
2018-07-09T05:20:01.945Z,15.8
2018-07-09T05:21:01.964Z,15.8
2018-07-09T05:22:01.876Z,16.0
2018-07-09T05:23:02.632Z,16.0
2018-07-09T05:24:01.903Z,16.0
2018-07-09T05:25:01.984Z,16.3
2018-07-09T05:26:02.034Z,16.3
2018-07-09T05:27:02.011Z,16.6
2018-07-09T05:28:02.686Z,16.6
2018-07-09T05:29:01.863Z,16.6
2018-07-09T05:30:01.902Z,16.6
2018-07-09T05:31:01.862Z,16.6
2018-07-09T05:32:01.901Z,16.7
2018-07-09T05:33:02.029Z,16.7
2018-07-09T05:34:02.060Z,16.7
2018-07-09T05:35:01.890Z,16.9
2018-07-09T05:36:01.877Z,16.9
2018-07-09T05:37:01.963Z,16.9
2018-07-09T05:38:01.869Z,16.9
2018-07-09T05:39:01.917Z,16.9
2018-07-09T05:40:02.088Z,17.4
2018-07-09T05:41:01.959Z,17.4
2018-07-09T05:42:01.950Z,17.4
2018-07-09T05:43:01.919Z,17.3
2018-07-09T05:44:01.990Z,17.3
2018-07-09T05:45:02.048Z,17.0
2018-07-09T05:46:02.003Z,17.0
2018-07-09T05:47:02.034Z,17.0
2018-07-09T05:48:01.957Z,17.0
2018-07-09T05:49:01.993Z,17.0
2018-07-09T05:50:02.005Z,17.0
2018-07-09T05:51:01.938Z,17.0
2018-07-09T05:52:01.982Z,17.0
2018-07-09T05:53:01.938Z,17.2
2018-07-09T05:54:02.028Z,17.2
2018-07-09T05:55:01.947Z,17.5
2018-07-09T05:56:01.969Z,17.5
2018-07-09T05:57:01.982Z,17.5
2018-07-09T05:58:01.983Z,18.0
2018-07-09T05:59:01.977Z,18.0
2018-07-09T06:00:01.997Z,18.0
2018-07-09T06:01:01.967Z,18.0
2018-07-09T06:02:02.019Z,18.0
2018-07-09T06:03:01.924Z,18.2
2018-07-09T06:04:01.966Z,18.2
2018-07-09T06:05:02.013Z,18.2
2018-07-09T06:06:01.942Z,18.1
2018-07-09T06:07:02.091Z,18.1
2018-07-09T06:08:02.006Z,17.8
2018-07-09T06:09:01.983Z,17.8
2018-07-09T06:10:01.931Z,17.8
2018-07-09T06:11:01.945Z,17.8
2018-07-09T06:12:02.751Z,17.8
2018-07-09T06:13:02.126Z,17.5
2018-07-09T06:14:01.955Z,17.5
2018-07-09T06:15:02.063Z,17.5
2018-07-09T06:16:02.100Z,17.4
2018-07-09T06:17:02.053Z,17.4
2018-07-09T06:18:01.995Z,17.4
2018-07-09T06:19:01.974Z,17.4
2018-07-09T06:20:02.047Z,17.4
2018-07-09T06:21:02.005Z,17.2
2018-07-09T06:22:54.542Z,17.2
2018-07-09T06:23:08.312Z,17.2
2018-07-09T06:24:08.370Z,17.3
2018-07-09T06:25:08.356Z,17.3
2018-07-09T06:26:08.477Z,17.5
2018-07-09T06:27:08.586Z,17.5
2018-07-09T06:28:08.402Z,17.7
2018-07-09T06:29:08.514Z,17.7
2018-07-09T06:30:08.390Z,17.7
2018-07-09T06:31:08.392Z,18.0
2018-07-09T06:32:08.416Z,18.0
2018-07-09T06:33:12.354Z,18.6
2018-07-09T06:34:08.484Z,18.6
2018-07-09T06:35:08.414Z,18.6
2018-07-09T06:36:08.426Z,19.1
2018-07-09T06:37:08.467Z,19.1
2018-07-09T06:38:08.419Z,19.1
2018-07-09T06:39:08.454Z,19.1
2018-07-09T06:40:08.440Z,19.1
2018-07-09T06:41:08.429Z,19.6
2018-07-09T06:42:08.464Z,19.6
2018-07-09T06:43:08.448Z,19.6
2018-07-09T06:44:08.510Z,19.8
2018-07-09T06:45:08.429Z,19.8
2018-07-09T06:46:08.412Z,19.9
2018-07-09T06:47:08.428Z,19.9
2018-07-09T06:48:08.481Z,19.9
2018-07-09T06:49:08.402Z,20.1
2018-07-09T06:50:08.481Z,20.1
2018-07-09T06:51:08.485Z,20.5
2018-07-09T06:52:08.488Z,20.5
2018-07-09T06:53:08.414Z,20.5
2018-07-09T06:54:08.439Z,20.4
2018-07-09T06:55:08.433Z,20.4
2018-07-09T06:56:08.457Z,20.4
2018-07-09T06:57:08.437Z,20.4
2018-07-09T06:58:08.409Z,20.4
2018-07-09T06:59:18.560Z,20.4
2018-07-09T07:00:08.400Z,20.4
2018-07-09T07:01:08.455Z,20.3
2018-07-09T07:02:08.493Z,20.3
2018-07-09T07:03:08.418Z,20.3
2018-07-09T07:04:08.556Z,20.3
2018-07-09T07:05:08.417Z,20.3
2018-07-09T07:06:08.421Z,20.8
2018-07-09T07:07:08.396Z,20.8
2018-07-09T07:08:08.483Z,20.8
2018-07-09T07:09:08.593Z,21.1
2018-07-09T07:10:08.452Z,21.1
2018-07-09T07:11:08.499Z,21.2
2018-07-09T07:12:08.506Z,21.2
2018-07-09T07:13:08.513Z,21.2
2018-07-09T07:14:08.480Z,21.6
2018-07-09T07:15:08.456Z,21.6
2018-07-09T07:16:08.420Z,21.6
2018-07-09T07:17:18.569Z,21.3
2018-07-09T07:18:08.327Z,21.3
2018-07-09T07:19:08.455Z,21.4
2018-07-09T07:20:08.415Z,21.4
2018-07-09T07:21:08.566Z,21.4
2018-07-09T07:22:08.444Z,21.9
2018-07-09T07:23:08.608Z,21.9
2018-07-09T07:24:08.451Z,22.0
2018-07-09T07:25:08.442Z,22.0
2018-07-09T07:26:08.555Z,22.0
2018-07-09T07:27:08.488Z,22.2
2018-07-09T07:28:09.409Z,22.2
2018-07-09T07:29:08.543Z,22.8
2018-07-09T07:30:08.424Z,22.8
2018-07-09T07:31:08.460Z,22.8
2018-07-09T07:32:08.450Z,22.6
2018-07-09T07:33:08.473Z,22.6
2018-07-09T07:34:08.469Z,23.0
2018-07-09T07:35:08.447Z,23.0
2018-07-09T07:36:08.465Z,23.0
2018-07-09T07:37:08.504Z,23.3
2018-07-09T07:38:10.802Z,23.3
2018-07-09T07:39:08.549Z,23.3
2018-07-09T07:40:08.454Z,23.3
2018-07-09T07:41:08.602Z,23.3
2018-07-09T07:42:08.457Z,23.6
2018-07-09T07:43:08.515Z,23.6
2018-07-09T07:44:08.437Z,23.6
2018-07-09T07:45:08.432Z,23.6
2018-07-09T07:46:08.459Z,23.6
2018-07-09T07:47:08.474Z,23.6
2018-07-09T07:48:08.462Z,23.6
2018-07-09T07:49:08.449Z,23.6
2018-07-09T07:50:08.540Z,24.0
2018-07-09T07:51:08.465Z,24.0
2018-07-09T07:52:08.441Z,24.2
2018-07-09T07:53:08.421Z,24.2
2018-07-09T07:54:08.419Z,24.2
2018-07-09T07:55:08.526Z,24.4
2018-07-09T07:56:08.523Z,24.4
2018-07-09T07:57:08.448Z,24.4
2018-07-09T07:58:08.552Z,24.4
2018-07-09T07:59:08.497Z,24.4
2018-07-09T08:00:08.429Z,24.5
2018-07-09T08:01:08.482Z,24.5
2018-07-09T08:02:08.519Z,24.0
2018-07-09T08:03:08.652Z,24.0
2018-07-09T08:04:08.499Z,24.0
2018-07-09T08:05:08.564Z,23.8
2018-07-09T08:06:08.746Z,23.8
2018-07-09T08:07:08.518Z,23.6
2018-07-09T08:09:08.485Z,23.6
2018-07-09T08:10:08.517Z,24.0
2018-07-09T08:11:11.068Z,24.0
2018-07-09T08:13:00.329Z,24.4
2018-07-09T08:13:27.171Z,24.4
2018-07-09T08:14:08.576Z,24.4
2018-07-09T08:15:08.541Z,24.8
2018-07-09T08:16:08.568Z,24.8
2018-07-09T08:17:08.550Z,24.8
2018-07-09T08:18:08.636Z,24.9
2018-07-09T08:19:08.551Z,24.9
2018-07-09T08:20:08.543Z,24.9
2018-07-09T08:21:08.488Z,24.9
2018-07-09T08:22:08.534Z,24.9
2018-07-09T08:23:08.507Z,23.6
2018-07-09T08:24:08.623Z,23.6
2018-07-09T08:25:08.701Z,23.4
2018-07-09T08:26:08.499Z,23.4
2018-07-09T08:27:08.509Z,23.4
2018-07-09T08:28:08.573Z,23.2
2018-07-09T08:29:08.572Z,23.2
2018-07-09T08:30:08.625Z,23.6
2018-07-09T08:31:08.761Z,23.6
2018-07-09T08:32:08.571Z,23.6
2018-07-09T08:33:08.570Z,23.3
2018-07-09T08:34:08.552Z,23.3
2018-07-09T08:35:08.564Z,23.6
2018-07-09T08:36:08.533Z,23.6
2018-07-09T08:37:08.510Z,23.6
2018-07-09T08:38:08.600Z,23.6
2018-07-09T08:39:08.544Z,23.6
2018-07-09T08:40:08.576Z,24.3
2018-07-09T08:41:08.601Z,24.3
2018-07-09T08:42:08.639Z,24.3
2018-07-09T08:43:08.706Z,24.5
2018-07-09T08:44:08.516Z,24.5
2018-07-09T08:45:08.582Z,24.5
2018-07-09T08:46:08.737Z,24.9
2018-07-09T08:47:08.631Z,24.9
2018-07-09T08:48:08.663Z,24.2
2018-07-09T08:49:08.591Z,24.2
2018-07-09T08:50:08.609Z,24.2
2018-07-09T08:51:08.644Z,23.5
2018-07-09T08:52:08.639Z,23.5
2018-07-09T08:53:44.994Z,23.6
2018-07-09T08:54:08.664Z,23.6
2018-07-09T08:55:08.802Z,23.6
2018-07-09T08:56:08.755Z,23.9
2018-07-09T08:57:08.715Z,23.9
2018-07-09T08:58:08.723Z,23.6
2018-07-09T08:59:08.634Z,23.6
2018-07-09T09:00:09.044Z,23.6
2018-07-09T09:01:08.640Z,23.6
2018-07-09T09:02:08.609Z,23.6
2018-07-09T09:03:08.686Z,24.1
2018-07-09T09:04:08.734Z,24.1
2018-07-09T09:05:08.724Z,24.1
2018-07-09T09:06:08.705Z,24.6
2018-07-09T09:07:08.606Z,24.6
2018-07-09T09:08:08.570Z,24.6
2018-07-09T09:09:08.641Z,24.6
2018-07-09T09:10:08.745Z,24.6
2018-07-09T09:11:08.609Z,24.5
2018-07-09T09:12:08.641Z,24.5
2018-07-09T09:13:08.643Z,23.8
2018-07-09T09:14:08.652Z,23.8
2018-07-09T09:15:08.679Z,23.8
2018-07-09T09:16:08.664Z,24.0
2018-07-09T09:17:08.657Z,24.0
2018-07-09T09:18:08.641Z,24.0
2018-07-09T09:19:08.613Z,24.2
2018-07-09T09:20:08.639Z,24.2
2018-07-09T09:21:08.701Z,24.6
2018-07-09T09:22:08.586Z,24.6
2018-07-09T09:23:08.686Z,24.6
2018-07-09T09:24:08.678Z,24.7
2018-07-09T09:25:08.654Z,24.7
2018-07-09T09:26:08.634Z,24.7
2018-07-09T09:27:08.628Z,24.7
2018-07-09T09:28:08.751Z,24.7
2018-07-09T09:29:08.637Z,25.3
2018-07-09T09:30:08.615Z,25.3
2018-07-09T09:31:08.802Z,25.2
2018-07-09T09:32:08.792Z,25.2
2018-07-09T09:33:08.669Z,25.2
2018-07-09T09:34:08.704Z,25.4
2018-07-09T09:35:08.661Z,25.4
2018-07-09T09:36:08.646Z,25.2
2018-07-09T09:37:08.641Z,25.2
2018-07-09T09:38:08.705Z,25.2
2018-07-09T09:39:08.696Z,25.7
2018-07-09T09:40:08.622Z,25.7
2018-07-09T09:41:08.648Z,25.7
2018-07-09T09:42:08.648Z,25.7
2018-07-09T09:43:08.853Z,25.7
2018-07-09T09:44:08.715Z,25.9
2018-07-09T09:45:08.681Z,25.9
2018-07-09T09:46:08.695Z,25.9
2018-07-09T09:47:08.651Z,25.7
2018-07-09T09:48:08.657Z,25.7
2018-07-09T09:49:08.800Z,26.2
2018-07-09T09:50:08.629Z,26.2
2018-07-09T09:51:08.701Z,26.2
2018-07-09T09:52:08.684Z,26.2
2018-07-09T09:53:08.662Z,26.2
2018-07-09T09:54:08.728Z,25.5
2018-07-09T09:55:08.778Z,25.5
2018-07-09T09:56:08.689Z,25.5
2018-07-09T09:57:08.721Z,25.3
2018-07-09T09:58:08.748Z,25.3
2018-07-09T09:59:08.674Z,25.7
2018-07-09T10:00:08.685Z,25.7
2018-07-09T10:01:08.672Z,25.7
2018-07-09T10:02:08.730Z,25.7
2018-07-09T10:03:08.711Z,25.7
2018-07-09T10:04:08.753Z,26.6
2018-07-09T10:05:08.715Z,26.6
2018-07-09T10:06:08.789Z,26.6
2018-07-09T10:07:08.712Z,26.4
2018-07-09T10:14:46.752Z,26.4
2018-07-09T10:15:46.740Z,25.9
2018-07-09T10:16:46.770Z,25.8
2018-07-09T10:17:46.709Z,25.8
2018-07-09T10:18:46.648Z,25.8
2018-07-09T10:19:46.773Z,25.8
2018-07-09T10:20:46.705Z,25.8
2018-07-09T10:21:46.695Z,25.8
2018-07-09T10:22:46.687Z,25.8
2018-07-09T10:23:46.703Z,25.8
2018-07-09T10:24:46.697Z,24.9
2018-07-09T10:25:46.668Z,24.9
2018-07-09T10:26:46.721Z,24.9
2018-07-09T10:27:48.558Z,24.5
2018-07-09T10:28:46.654Z,24.5
2018-07-09T10:29:46.778Z,25.0
2018-07-09T10:30:46.705Z,25.0
2018-07-09T10:36:41.978Z,25.0
2018-07-09T10:36:51.908Z,25.0
2018-07-09T10:37:51.963Z,25.6
2018-07-09T10:38:52.004Z,25.6
2018-07-09T10:39:52.016Z,26.0
2018-07-09T10:40:51.943Z,26.0
2018-07-09T10:41:51.974Z,26.0
2018-07-09T10:42:51.975Z,26.4
2018-07-09T10:43:52.044Z,26.4
2018-07-09T10:44:51.922Z,26.9
2018-07-09T10:47:04.738Z,26.9
2018-07-09T10:48:04.780Z,26.9
2018-07-09T10:49:04.689Z,26.9
2018-07-09T10:50:04.745Z,26.2
2018-07-09T10:51:04.718Z,26.2
2018-07-09T10:52:04.680Z,26.2
2018-07-09T10:53:04.705Z,26.5
2018-07-09T10:54:04.767Z,26.5
2018-07-09T10:55:04.945Z,26.6
2018-07-09T10:56:04.682Z,26.6
2018-07-09T10:57:57.218Z,26.6
2018-07-09T10:58:05.142Z,26.6
2018-07-09T10:59:05.224Z,25.3
2018-07-09T11:00:05.171Z,25.6
2018-07-09T11:01:05.248Z,25.6
2018-07-09T11:02:05.135Z,25.6
2018-07-09T11:03:05.209Z,25.6
2018-07-09T11:04:05.170Z,25.6
2018-07-09T11:05:05.257Z,25.0
2018-07-09T11:06:05.248Z,25.0
2018-07-09T11:07:05.241Z,25.0
2018-07-09T11:08:05.134Z,24.9
2018-07-09T11:09:05.237Z,24.9
2018-07-09T11:10:05.274Z,24.7
2018-07-09T11:11:05.136Z,24.7
2018-07-09T11:12:05.390Z,24.7
2018-07-09T11:13:05.146Z,24.8
2018-07-09T11:14:05.217Z,24.8
2018-07-09T11:15:05.400Z,24.8
2018-07-09T11:16:05.243Z,25.2
2018-07-09T11:17:05.677Z,25.2
2018-07-09T11:18:05.164Z,25.2
2018-07-09T11:19:05.224Z,25.2
2018-07-09T11:20:05.383Z,25.2
2018-07-09T11:21:05.220Z,25.2
2018-07-09T11:22:05.979Z,25.2
2018-07-09T11:23:05.296Z,25.4
2018-07-09T11:24:05.200Z,25.4
2018-07-09T11:25:05.215Z,25.4
2018-07-09T11:26:06.016Z,25.2
2018-07-09T11:27:05.265Z,25.2
2018-07-09T11:28:05.214Z,24.9
2018-07-09T11:29:05.225Z,24.9
2018-07-09T11:30:05.386Z,24.9
2018-07-09T11:31:05.209Z,25.0
2018-07-09T11:32:05.276Z,25.0
2018-07-09T11:33:05.295Z,25.2
2018-07-09T11:34:05.254Z,25.2
2018-07-09T11:35:05.280Z,25.2
2018-07-09T11:36:06.064Z,25.0
2018-07-09T11:37:05.179Z,25.0
2018-07-09T11:38:05.243Z,25.2
2018-07-09T11:39:05.360Z,25.2
2018-07-09T11:40:05.285Z,25.2
2018-07-09T11:41:05.378Z,25.0
2018-07-09T11:42:05.368Z,25.0
2018-07-09T11:43:05.240Z,25.0
2018-07-09T11:44:05.247Z,25.0
2018-07-09T11:45:05.198Z,25.0
2018-07-09T11:46:06.009Z,24.7
2018-07-09T11:47:05.288Z,24.7
2018-07-09T11:48:05.301Z,24.7
2018-07-09T11:49:05.284Z,25.0
2018-07-09T11:50:05.234Z,25.0
2018-07-09T11:51:05.301Z,25.1
2018-07-09T11:52:05.248Z,25.1
2018-07-09T11:53:05.182Z,25.1
2018-07-09T11:54:05.240Z,24.4
2018-07-09T11:55:05.234Z,24.4
2018-07-09T11:56:05.242Z,24.3
2018-07-09T11:57:05.287Z,24.3
2018-07-09T11:58:05.276Z,24.3
2018-07-09T11:59:05.283Z,24.8
2018-07-09T12:00:05.339Z,24.8
2018-07-09T12:01:05.256Z,25.4
2018-07-09T12:02:05.392Z,25.4
2018-07-09T12:03:05.272Z,25.4
2018-07-09T12:04:05.215Z,25.3
2018-07-09T12:05:05.339Z,25.3
2018-07-09T12:06:05.297Z,25.5
2018-07-09T12:07:05.261Z,25.5
2018-07-09T12:08:05.282Z,25.5
2018-07-09T12:09:05.280Z,25.6
2018-07-09T12:10:05.249Z,25.6
2018-07-09T12:11:05.341Z,25.7
2018-07-09T12:12:05.252Z,25.7
2018-07-09T12:13:05.312Z,25.7
2018-07-09T12:14:07.518Z,26.4
2018-07-09T12:15:05.358Z,26.4
2018-07-09T12:16:05.329Z,26.4
2018-07-09T12:17:05.315Z,26.7
2018-07-09T12:18:05.297Z,26.7
2018-07-09T12:19:05.261Z,26.4
2018-07-09T12:20:05.361Z,26.4
2018-07-09T12:21:05.312Z,26.4
2018-07-09T12:22:05.250Z,25.6
2018-07-09T12:23:05.330Z,25.6
2018-07-09T12:24:05.969Z,25.6
2018-07-09T12:25:05.318Z,25.6
2018-07-09T12:26:05.389Z,25.6
2018-07-09T12:27:05.301Z,25.9
2018-07-09T12:28:05.369Z,25.9
2018-07-09T12:29:05.432Z,25.3
2018-07-09T12:30:05.388Z,25.3
2018-07-09T12:31:05.318Z,25.3
2018-07-09T12:32:05.382Z,25.5
2018-07-09T12:33:05.330Z,25.5
2018-07-09T12:34:05.353Z,25.5
2018-07-09T12:35:05.362Z,25.5
2018-07-09T12:36:05.409Z,25.5
2018-07-09T12:37:05.329Z,25.4
2018-07-09T12:38:05.356Z,25.4
2018-07-09T12:39:05.352Z,25.7
2018-07-09T12:40:05.402Z,25.7
2018-07-09T12:41:05.363Z,25.7
2018-07-09T12:42:05.340Z,25.7
2018-07-09T12:43:05.865Z,25.7
2018-07-09T12:44:05.925Z,25.7
2018-07-09T12:45:05.325Z,25.8
2018-07-09T12:46:06.017Z,25.8
2018-07-09T12:47:05.326Z,26.4
2018-07-09T12:48:05.398Z,26.4
2018-07-09T12:49:05.314Z,26.4
2018-07-09T12:50:05.379Z,26.2
2018-07-09T12:51:05.339Z,26.2
2018-07-09T12:52:05.435Z,26.1
2018-07-09T12:53:05.390Z,26.1
2018-07-09T12:54:05.382Z,26.1
2018-07-09T12:55:05.373Z,25.8
2018-07-09T12:56:05.472Z,25.8
2018-07-09T12:57:05.420Z,25.3
2018-07-09T12:58:06.034Z,25.3
2018-07-09T12:59:05.417Z,25.3
2018-07-09T13:00:25.407Z,25.6
2018-07-09T13:01:05.403Z,25.6
2018-07-09T13:02:06.038Z,25.6
2018-07-09T13:03:05.396Z,25.6
2018-07-09T13:04:05.419Z,25.6
2018-07-09T13:05:05.289Z,25.6
2018-07-09T13:06:05.436Z,25.6
2018-07-09T13:07:05.447Z,25.8
2018-07-09T13:08:05.354Z,25.8
2018-07-09T13:09:05.462Z,25.8
2018-07-09T13:10:05.432Z,25.9
2018-07-09T13:12:18.364Z,26.5
2018-07-09T13:13:18.394Z,26.5
2018-07-09T13:14:18.395Z,26.5
2018-07-09T13:15:18.369Z,26.0
2018-07-09T13:16:18.339Z,26.0
2018-07-09T13:17:18.434Z,26.2
2018-07-09T13:18:18.352Z,26.2
2018-07-09T13:19:18.394Z,26.2
2018-07-09T13:20:18.360Z,26.0
2018-07-09T13:21:18.386Z,26.0
2018-07-09T13:22:18.432Z,25.9
2018-07-09T13:23:18.537Z,25.9
2018-07-09T13:24:18.476Z,25.9
2018-07-09T13:25:18.527Z,26.1
2018-07-09T13:26:18.445Z,26.1
2018-07-09T13:27:18.400Z,25.9
2018-07-09T13:28:18.435Z,25.9
2018-07-09T13:29:18.357Z,25.9
2018-07-09T13:30:18.406Z,26.2
2018-07-09T13:31:18.405Z,26.2
2018-07-09T13:32:18.384Z,26.2
2018-07-09T13:33:18.390Z,26.0
2018-07-09T13:34:18.401Z,26.0
2018-07-09T13:35:18.495Z,25.3
2018-07-09T13:36:18.482Z,25.3
2018-07-09T13:37:18.428Z,25.3
2018-07-09T13:38:18.392Z,25.1
2018-07-09T13:39:18.437Z,25.1
2018-07-09T13:40:18.566Z,26.0
2018-07-09T13:41:18.394Z,26.0
2018-07-09T13:42:18.402Z,26.0
2018-07-09T13:43:18.427Z,26.4
2018-07-09T13:44:18.395Z,26.4